• Join FlightAware (Why Join?)
  • Login
  • US Flag 
04:20AM EDT


 

Airport Tracker/Info


-or-


 

Live Flight TrackerFlight Track Log ✈ N102WY ✈ 10-Sep-2013 ✈ KLAR - KJAC

Flight Track Log - Related Links

Times and Time Zones

All times are in EDT time to prevent confusion due to time zone crossing. See the N102WY flight status page for this flight to view local times or setup timezone preferences in your user account.

Time Position Orientation Groundspeed Altitude Reporting Facility
EDT Latitude Longitude Course Direction KTS MPH feet Rate Location/Type
10:21AM 41.3319 -105.8194 304° West 231 266 13,600  Level Salt Lake Center
10:22AM 41.3672 -105.8900 304° West 232 267 16,900 2,820 Climbing Salt Lake Center
10:23AM 41.4103 -105.9758 304° West 246 283 19,500 2,220 Climbing Salt Lake Center
10:24AM 41.4522 -106.0581 304° West 271 312 21,500 2,040 Climbing Salt Lake Center
10:25AM 41.5042 -106.1622 304° West 301 346 23,700 2,040 Climbing Salt Lake Center
10:26AM 41.3558 -105.7616 304° West  Level FlightAware Approximate
10:26AM 41.5503 -106.2561 303° West 315 362 25,700  Level Salt Lake Center
10:28AM 41.6047 -106.3656 304° West 321 369 27,900 1,980 Climbing Salt Lake Center
10:29AM 41.6517 -106.4622 303° West 322 371 29,800 2,280 Climbing Salt Lake Center
10:30AM 41.7069 -106.5722 304° West 321 369 32,600 1,980 Climbing Salt Lake Center
10:31AM 41.7494 -106.6617 303° West 304 350 33,900 840 Climbing Salt Lake Center
10:32AM 41.7986 -106.7636 303° West 331 381 34,400 1,500 Climbing Salt Lake Center
10:33AM 41.8606 -106.8872 304° West 354 407 37,000 1,740 Climbing Salt Lake Center
10:34AM 41.9042 -106.9808 302° West 327 376 38,000 360 Climbing Salt Lake Center
10:35AM 41.9808 -107.1358 304° West 339 390 38,000  Level Denver Center
10:36AM 42.0386 -107.2556 303° West 342 394 38,000  Level Denver Center
10:37AM 42.0894 -107.3550 305° West 341 392 38,000  Level Denver Center
10:38AM 42.1511 -107.4697 306° West 339 390 38,000  Level Denver Center
10:39AM 42.2042 -107.5697 306° West 343 395 38,000  Level Denver Center
10:40AM 42.2406 -107.6375 306° West 348 400 38,000  Level Salt Lake Center
10:41AM 42.2928 -107.7381 305° West 344 396 38,000  Level Salt Lake Center
10:42AM 42.3556 -107.8544 306° West 344 396 38,000  Level Salt Lake Center
10:43AM 42.4075 -107.9547 305° West 343 395 38,000  Level Salt Lake Center
10:44AM 42.4694 -108.0714 306° West 341 392 38,000  Level Salt Lake Center
10:45AM 42.5208 -108.1717 305° West 340 391 38,000  Level Salt Lake Center
10:46AM 42.5833 -108.2889 306° West 344 396 38,000  Level Salt Lake Center
10:47AM 42.6358 -108.3900 305° West 345 397 38,000  Level Salt Lake Center
10:48AM 42.6964 -108.5092 305° West 344 396 38,000  Level Salt Lake Center
10:49AM 42.7494 -108.6106 305° West 345 397 38,000  Level Salt Lake Center
10:50AM 42.8103 -108.7294 305° West 345 397 38,000  Level Salt Lake Center
10:51AM 42.8625 -108.8319 305° West 345 397 38,000  Level Salt Lake Center
10:52AM 42.9222 -108.9511 304° West 343 395 38,000  Level Salt Lake Center
10:53AM 42.9778 -109.0600 305° West 338 389 38,000  Level Salt Lake Center
10:54AM 43.0319 -109.1667 305° West 341 392 38,000  Level Salt Lake Center
10:55AM 43.0861 -109.2733 305° West 343 395 38,000  Level Salt Lake Center
10:56AM 43.1397 -109.3811 304° West 342 394 38,000  Level Salt Lake Center
10:57AM 43.1942 -109.4892 305° West 345 397 38,000  Level Salt Lake Center
10:58AM 43.2472 -109.5972 304° West 343 395 38,000 -1,620 Level Salt Lake Center
11:00AM 43.3144 -109.7303 305° West 354 407 34,700 -3,180 Descending Salt Lake Center
11:01AM 43.3742 -109.8511 304° West 362 417 31,500 -3,000 Descending Salt Lake Center
11:02AM 43.4281 -109.9569 305° West 356 410 28,600 -2,760 Descending Salt Lake Center
11:03AM 43.4811 -110.0625 305° West 353 406 25,800 -3,000 Descending Salt Lake Center
11:04AM 43.5358 -110.1831 302° West 344 396 22,500 -3,300 Descending Salt Lake Center
11:05AM 43.5939 -110.2961 305° West 333 383 19,100 -3,360 Descending Salt Lake Center
11:06AM 43.6439 -110.3986 304° West 325 374 15,600 -3,600 Descending Salt Lake Center
11:07AM 43.6978 -110.4978 307° West 326 375 11,700 -3,000 Descending Salt Lake Center
11:08AM 43.7350 -110.5989 297° West 311 358 9,400 -1,800 Descending Salt Lake Center
11:09AM 43.6917 -110.6908 237° Southwest 261 300 8,000 -1,260 Descending Salt Lake Center
11:10AM 43.6422 -110.7206 204° Southwest 217 250 6,900 -1,080 Descending Salt Lake Center